sensor_id;sensor_type;location;lat;lon;timestamp;P1;durP1;ratioP1;P2;durP2;ratioP2
39502;SDS011;26970;49.900;10.774;2024-02-23T00:01:03;0.50;;;0.50;;
39502;SDS011;26970;49.900;10.774;2024-02-23T00:03:29;0.50;;;0.50;;
39502;SDS011;26970;49.900;10.774;2024-02-23T00:05:55;1.33;;;0.63;;
39502;SDS011;26970;49.900;10.774;2024-02-23T00:08:20;1.20;;;0.82;;
39502;SDS011;26970;49.900;10.774;2024-02-23T00:10:46;2.45;;;1.00;;
39502;SDS011;26970;49.900;10.774;2024-02-23T00:13:11;0.77;;;0.77;;
39502;SDS011;26970;49.900;10.774;2024-02-23T00:15:37;0.60;;;0.60;;
39502;SDS011;26970;49.900;10.774;2024-02-23T00:18:03;0.70;;;0.70;;
39502;SDS011;26970;49.900;10.774;2024-02-23T00:20:29;0.90;;;0.75;;
39502;SDS011;26970;49.900;10.774;2024-02-23T00:22:55;0.70;;;0.70;;
39502;SDS011;26970;49.900;10.774;2024-02-23T00:25:20;0.70;;;0.70;;
39502;SDS011;26970;49.900;10.774;2024-02-23T00:27:48;0.75;;;0.73;;
39502;SDS011;26970;49.900;10.774;2024-02-23T00:30:13;0.70;;;0.70;;
39502;SDS011;26970;49.900;10.774;2024-02-23T00:32:39;0.50;;;0.50;;
39502;SDS011;26970;49.900;10.774;2024-02-23T00:35:05;0.52;;;0.52;;
39502;SDS011;26970;49.900;10.774;2024-02-23T00:37:31;0.98;;;0.77;;
39502;SDS011;26970;49.900;10.774;2024-02-23T00:40:01;0.80;;;0.80;;
39502;SDS011;26970;49.900;10.774;2024-02-23T00:42:29;0.80;;;0.80;;
39502;SDS011;26970;49.900;10.774;2024-02-23T00:44:55;0.70;;;0.70;;
39502;SDS011;26970;49.900;10.774;2024-02-23T00:47:20;1.13;;;0.82;;
39502;SDS011;26970;49.900;10.774;2024-02-23T00:49:46;0.77;;;0.70;;
39502;SDS011;26970;49.900;10.774;2024-02-23T00:52:11;1.38;;;0.88;;
39502;SDS011;26970;49.900;10.774;2024-02-23T00:54:37;0.95;;;0.88;;
39502;SDS011;26970;49.900;10.774;2024-02-23T00:57:02;0.63;;;0.63;;
39502;SDS011;26970;49.900;10.774;2024-02-23T00:59:28;0.98;;;0.98;;
39502;SDS011;26970;49.900;10.774;2024-02-23T01:01:54;1.10;;;1.00;;
39502;SDS011;26970;49.900;10.774;2024-02-23T01:04:20;0.60;;;0.60;;
39502;SDS011;26970;49.900;10.774;2024-02-23T01:06:45;0.60;;;0.60;;
39502;SDS011;26970;49.900;10.774;2024-02-23T01:09:11;0.80;;;0.80;;
39502;SDS011;26970;49.900;10.774;2024-02-23T01:11:37;1.80;;;0.70;;
39502;SDS011;26970;49.900;10.774;2024-02-23T01:14:02;0.60;;;0.60;;
39502;SDS011;26970;49.900;10.774;2024-02-23T01:16:28;0.70;;;0.70;;
39502;SDS011;26970;49.900;10.774;2024-02-23T01:18:54;0.73;;;0.70;;
39502;SDS011;26970;49.900;10.774;2024-02-23T01:21:19;1.10;;;0.88;;
39502;SDS011;26970;49.900;10.774;2024-02-23T01:23:45;1.65;;;0.90;;
39502;SDS011;26970;49.900;10.774;2024-02-23T01:26:10;0.55;;;0.55;;
39502;SDS011;26970;49.900;10.774;2024-02-23T01:28:36;0.80;;;0.80;;
39502;SDS011;26970;49.900;10.774;2024-02-23T01:31:02;1.08;;;0.80;;
39502;SDS011;26970;49.900;10.774;2024-02-23T01:33:29;2.17;;;0.77;;
39502;SDS011;26970;49.900;10.774;2024-02-23T01:35:54;0.88;;;0.75;;
39502;SDS011;26970;49.900;10.774;2024-02-23T01:38:22;0.80;;;0.80;;
39502;SDS011;26970;49.900;10.774;2024-02-23T01:40:49;1.58;;;1.00;;
39502;SDS011;26970;49.900;10.774;2024-02-23T01:43:15;0.95;;;0.88;;
39502;SDS011;26970;49.900;10.774;2024-02-23T01:45:41;1.15;;;0.80;;
39502;SDS011;26970;49.900;10.774;2024-02-23T01:48:06;1.00;;;0.77;;
39502;SDS011;26970;49.900;10.774;2024-02-23T01:50:32;2.35;;;0.90;;
39502;SDS011;26970;49.900;10.774;2024-02-23T01:53:00;2.40;;;0.80;;
39502;SDS011;26970;49.900;10.774;2024-02-23T01:55:27;0.93;;;0.88;;
39502;SDS011;26970;49.900;10.774;2024-02-23T01:57:53;2.05;;;0.80;;
39502;SDS011;26970;49.900;10.774;2024-02-23T02:00:20;1.92;;;1.30;;
39502;SDS011;26970;49.900;10.774;2024-02-23T02:02:46;1.27;;;0.70;;
39502;SDS011;26970;49.900;10.774;2024-02-23T02:05:13;1.15;;;0.90;;
39502;SDS011;26970;49.900;10.774;2024-02-23T02:07:39;0.63;;;0.63;;
39502;SDS011;26970;49.900;10.774;2024-02-23T02:10:06;0.75;;;0.75;;
39502;SDS011;26970;49.900;10.774;2024-02-23T02:12:34;1.58;;;1.00;;
39502;SDS011;26970;49.900;10.774;2024-02-23T02:15:00;2.15;;;0.90;;
39502;SDS011;26970;49.900;10.774;2024-02-23T02:17:27;0.70;;;0.70;;
39502;SDS011;26970;49.900;10.774;2024-02-23T02:19:53;1.08;;;0.73;;
39502;SDS011;26970;49.900;10.774;2024-02-23T02:22:18;1.58;;;0.85;;
39502;SDS011;26970;49.900;10.774;2024-02-23T02:24:44;3.10;;;0.88;;
39502;SDS011;26970;49.900;10.774;2024-02-23T02:27:11;0.63;;;0.63;;
39502;SDS011;26970;49.900;10.774;2024-02-23T02:29:37;0.73;;;0.73;;
39502;SDS011;26970;49.900;10.774;2024-02-23T02:32:03;1.40;;;0.70;;
39502;SDS011;26970;49.900;10.774;2024-02-23T02:34:29;0.95;;;0.80;;
39502;SDS011;26970;49.900;10.774;2024-02-23T02:36:55;0.90;;;0.90;;
39502;SDS011;26970;49.900;10.774;2024-02-23T02:39:20;3.42;;;0.90;;
39502;SDS011;26970;49.900;10.774;2024-02-23T02:41:47;1.45;;;1.02;;
39502;SDS011;26970;49.900;10.774;2024-02-23T02:44:13;2.30;;;1.40;;
39502;SDS011;26970;49.900;10.774;2024-02-23T02:46:40;2.78;;;0.85;;
39502;SDS011;26970;49.900;10.774;2024-02-23T02:49:06;0.95;;;0.90;;
39502;SDS011;26970;49.900;10.774;2024-02-23T02:51:31;2.75;;;0.88;;
39502;SDS011;26970;49.900;10.774;2024-02-23T02:53:57;1.58;;;1.00;;
39502;SDS011;26970;49.900;10.774;2024-02-23T02:56:22;2.17;;;0.73;;
39502;SDS011;26970;49.900;10.774;2024-02-23T02:58:48;0.98;;;0.90;;
39502;SDS011;26970;49.900;10.774;2024-02-23T03:01:14;1.00;;;1.00;;
39502;SDS011;26970;49.900;10.774;2024-02-23T03:03:39;1.58;;;0.80;;
39502;SDS011;26970;49.900;10.774;2024-02-23T03:06:05;1.15;;;0.75;;
39502;SDS011;26970;49.900;10.774;2024-02-23T03:08:31;1.27;;;0.73;;
39502;SDS011;26970;49.900;10.774;2024-02-23T03:10:56;1.98;;;1.00;;
39502;SDS011;26970;49.900;10.774;2024-02-23T03:13:22;1.23;;;0.95;;
39502;SDS011;26970;49.900;10.774;2024-02-23T03:15:47;2.33;;;0.98;;
39502;SDS011;26970;49.900;10.774;2024-02-23T03:18:13;0.90;;;0.75;;
39502;SDS011;26970;49.900;10.774;2024-02-23T03:20:40;3.30;;;0.95;;
39502;SDS011;26970;49.900;10.774;2024-02-23T03:23:06;2.08;;;1.20;;
39502;SDS011;26970;49.900;10.774;2024-02-23T03:25:32;1.42;;;0.80;;
39502;SDS011;26970;49.900;10.774;2024-02-23T03:27:58;0.70;;;0.70;;
39502;SDS011;26970;49.900;10.774;2024-02-23T03:30:23;0.57;;;0.57;;
39502;SDS011;26970;49.900;10.774;2024-02-23T03:32:49;0.70;;;0.70;;
39502;SDS011;26970;49.900;10.774;2024-02-23T03:35:15;4.18;;;1.40;;
39502;SDS011;26970;49.900;10.774;2024-02-23T03:37:40;2.38;;;1.00;;
39502;SDS011;26970;49.900;10.774;2024-02-23T03:40:06;8.15;;;1.30;;
39502;SDS011;26970;49.900;10.774;2024-02-23T03:42:32;2.97;;;1.10;;
39502;SDS011;26970;49.900;10.774;2024-02-23T03:44:57;2.13;;;1.33;;
39502;SDS011;26970;49.900;10.774;2024-02-23T03:47:23;3.53;;;0.98;;
39502;SDS011;26970;49.900;10.774;2024-02-23T03:49:48;6.80;;;1.10;;
39502;SDS011;26970;49.900;10.774;2024-02-23T03:52:14;1.60;;;0.85;;
39502;SDS011;26970;49.900;10.774;2024-02-23T03:54:39;4.22;;;1.08;;
39502;SDS011;26970;49.900;10.774;2024-02-23T03:57:05;3.47;;;1.25;;
39502;SDS011;26970;49.900;10.774;2024-02-23T03:59:30;1.83;;;0.95;;
39502;SDS011;26970;49.900;10.774;2024-02-23T04:01:56;2.22;;;0.88;;
39502;SDS011;26970;49.900;10.774;2024-02-23T04:04:22;1.33;;;0.93;;
39502;SDS011;26970;49.900;10.774;2024-02-23T04:06:47;1.65;;;0.90;;
39502;SDS011;26970;49.900;10.774;2024-02-23T04:09:13;4.07;;;1.30;;
39502;SDS011;26970;49.900;10.774;2024-02-23T04:11:38;2.67;;;1.00;;
39502;SDS011;26970;49.900;10.774;2024-02-23T04:14:04;4.78;;;1.20;;
39502;SDS011;26970;49.900;10.774;2024-02-23T04:16:32;4.28;;;1.75;;
39502;SDS011;26970;49.900;10.774;2024-02-23T04:18:58;4.70;;;1.23;;
39502;SDS011;26970;49.900;10.774;2024-02-23T04:21:24;2.63;;;0.90;;
39502;SDS011;26970;49.900;10.774;2024-02-23T04:23:50;1.38;;;0.93;;
39502;SDS011;26970;49.900;10.774;2024-02-23T04:26:16;2.25;;;0.90;;
39502;SDS011;26970;49.900;10.774;2024-02-23T04:28:41;0.80;;;0.80;;
39502;SDS011;26970;49.900;10.774;2024-02-23T04:31:10;3.20;;;1.10;;
39502;SDS011;26970;49.900;10.774;2024-02-23T04:33:36;2.30;;;1.48;;
39502;SDS011;26970;49.900;10.774;2024-02-23T04:36:03;1.13;;;0.73;;
39502;SDS011;26970;49.900;10.774;2024-02-23T04:38:29;4.40;;;1.35;;
39502;SDS011;26970;49.900;10.774;2024-02-23T04:40:55;2.40;;;0.80;;
39502;SDS011;26970;49.900;10.774;2024-02-23T04:43:21;1.92;;;0.73;;
39502;SDS011;26970;49.900;10.774;2024-02-23T04:45:48;0.80;;;0.80;;
39502;SDS011;26970;49.900;10.774;2024-02-23T04:48:13;2.00;;;0.95;;
39502;SDS011;26970;49.900;10.774;2024-02-23T04:50:39;2.55;;;0.80;;
39502;SDS011;26970;49.900;10.774;2024-02-23T04:53:04;0.82;;;0.75;;
39502;SDS011;26970;49.900;10.774;2024-02-23T04:55:30;2.92;;;1.33;;
39502;SDS011;26970;49.900;10.774;2024-02-23T04:57:55;3.72;;;0.90;;
39502;SDS011;26970;49.900;10.774;2024-02-23T05:00:21;2.83;;;1.55;;
39502;SDS011;26970;49.900;10.774;2024-02-23T05:02:58;0.77;;;0.77;;
39502;SDS011;26970;49.900;10.774;2024-02-23T05:05:24;3.17;;;1.13;;
39502;SDS011;26970;49.900;10.774;2024-02-23T05:07:49;2.97;;;0.98;;
39502;SDS011;26970;49.900;10.774;2024-02-23T05:10:15;3.95;;;1.13;;
39502;SDS011;26970;49.900;10.774;2024-02-23T05:12:42;2.55;;;1.17;;
39502;SDS011;26970;49.900;10.774;2024-02-23T05:15:07;1.30;;;0.80;;
39502;SDS011;26970;49.900;10.774;2024-02-23T05:17:33;2.25;;;0.95;;
39502;SDS011;26970;49.900;10.774;2024-02-23T05:19:59;1.20;;;1.10;;
39502;SDS011;26970;49.900;10.774;2024-02-23T05:22:24;2.10;;;1.10;;
39502;SDS011;26970;49.900;10.774;2024-02-23T05:24:50;0.98;;;0.80;;
39502;SDS011;26970;49.900;10.774;2024-02-23T05:27:15;0.90;;;0.90;;
39502;SDS011;26970;49.900;10.774;2024-02-23T05:29:41;2.72;;;0.77;;
39502;SDS011;26970;49.900;10.774;2024-02-23T05:32:06;2.67;;;1.20;;
39502;SDS011;26970;49.900;10.774;2024-02-23T05:34:33;4.18;;;1.85;;
39502;SDS011;26970;49.900;10.774;2024-02-23T05:37:00;1.58;;;1.42;;
39502;SDS011;26970;49.900;10.774;2024-02-23T05:39:26;5.68;;;1.30;;
39502;SDS011;26970;49.900;10.774;2024-02-23T05:41:52;2.47;;;0.90;;
39502;SDS011;26970;49.900;10.774;2024-02-23T05:44:17;2.38;;;0.88;;
39502;SDS011;26970;49.900;10.774;2024-02-23T05:46:43;2.83;;;0.95;;
39502;SDS011;26970;49.900;10.774;2024-02-23T05:49:08;2.05;;;0.80;;
39502;SDS011;26970;49.900;10.774;2024-02-23T05:51:34;2.45;;;1.00;;
39502;SDS011;26970;49.900;10.774;2024-02-23T05:54:00;1.85;;;1.15;;
39502;SDS011;26970;49.900;10.774;2024-02-23T05:56:26;0.73;;;0.73;;
39502;SDS011;26970;49.900;10.774;2024-02-23T05:58:51;3.10;;;1.00;;
39502;SDS011;26970;49.900;10.774;2024-02-23T06:01:17;0.98;;;0.90;;
39502;SDS011;26970;49.900;10.774;2024-02-23T06:03:44;3.88;;;0.95;;
39502;SDS011;26970;49.900;10.774;2024-02-23T06:06:09;1.90;;;1.15;;
39502;SDS011;26970;49.900;10.774;2024-02-23T06:08:35;1.45;;;1.20;;
39502;SDS011;26970;49.900;10.774;2024-02-23T06:11:01;3.20;;;0.70;;
39502;SDS011;26970;49.900;10.774;2024-02-23T06:13:28;1.50;;;1.05;;
39502;SDS011;26970;49.900;10.774;2024-02-23T06:15:54;1.83;;;0.80;;
39502;SDS011;26970;49.900;10.774;2024-02-23T06:18:19;1.27;;;1.00;;
39502;SDS011;26970;49.900;10.774;2024-02-23T06:20:45;1.13;;;0.98;;
39502;SDS011;26970;49.900;10.774;2024-02-23T06:23:10;1.15;;;1.05;;
39502;SDS011;26970;49.900;10.774;2024-02-23T06:25:36;0.45;;;0.45;;
39502;SDS011;26970;49.900;10.774;2024-02-23T06:28:01;3.67;;;0.77;;
39502;SDS011;26970;49.900;10.774;2024-02-23T06:30:27;2.65;;;1.20;;
39502;SDS011;26970;49.900;10.774;2024-02-23T06:32:53;4.38;;;1.38;;
39502;SDS011;26970;49.900;10.774;2024-02-23T06:35:18;2.28;;;1.40;;
39502;SDS011;26970;49.900;10.774;2024-02-23T06:37:44;2.55;;;1.00;;
39502;SDS011;26970;49.900;10.774;2024-02-23T06:40:10;2.05;;;0.90;;
39502;SDS011;26970;49.900;10.774;2024-02-23T06:42:35;2.42;;;1.10;;
39502;SDS011;26970;49.900;10.774;2024-02-23T06:45:01;2.92;;;1.20;;
39502;SDS011;26970;49.900;10.774;2024-02-23T06:47:27;2.33;;;1.05;;
39502;SDS011;26970;49.900;10.774;2024-02-23T06:49:52;0.90;;;0.90;;
39502;SDS011;26970;49.900;10.774;2024-02-23T06:52:18;3.80;;;1.35;;
39502;SDS011;26970;49.900;10.774;2024-02-23T06:54:43;1.20;;;0.88;;
39502;SDS011;26970;49.900;10.774;2024-02-23T06:57:10;4.35;;;1.35;;
39502;SDS011;26970;49.900;10.774;2024-02-23T06:59:35;2.22;;;0.85;;
39502;SDS011;26970;49.900;10.774;2024-02-23T07:02:01;1.52;;;1.10;;
39502;SDS011;26970;49.900;10.774;2024-02-23T07:04:27;1.00;;;1.00;;
39502;SDS011;26970;49.900;10.774;2024-02-23T07:06:54;2.03;;;1.13;;
39502;SDS011;26970;49.900;10.774;2024-02-23T07:09:20;1.60;;;1.08;;
39502;SDS011;26970;49.900;10.774;2024-02-23T07:11:46;2.92;;;1.15;;
39502;SDS011;26970;49.900;10.774;2024-02-23T07:14:11;2.55;;;0.90;;
39502;SDS011;26970;49.900;10.774;2024-02-23T07:16:39;3.88;;;1.20;;
39502;SDS011;26970;49.900;10.774;2024-02-23T07:19:05;3.40;;;1.00;;
39502;SDS011;26970;49.900;10.774;2024-02-23T07:21:32;3.00;;;1.60;;
39502;SDS011;26970;49.900;10.774;2024-02-23T07:23:58;4.43;;;1.05;;
39502;SDS011;26970;49.900;10.774;2024-02-23T07:26:24;2.20;;;0.88;;
39502;SDS011;26970;49.900;10.774;2024-02-23T07:28:49;1.60;;;1.27;;
39502;SDS011;26970;49.900;10.774;2024-02-23T07:31:15;4.43;;;0.95;;
39502;SDS011;26970;49.900;10.774;2024-02-23T07:33:42;3.22;;;1.50;;
39502;SDS011;26970;49.900;10.774;2024-02-23T07:36:07;3.05;;;1.67;;
39502;SDS011;26970;49.900;10.774;2024-02-23T07:38:38;2.47;;;1.83;;
39502;SDS011;26970;49.900;10.774;2024-02-23T07:41:04;9.30;;;2.22;;
39502;SDS011;26970;49.900;10.774;2024-02-23T07:43:29;2.97;;;1.85;;
39502;SDS011;26970;49.900;10.774;2024-02-23T07:45:55;2.72;;;1.20;;
39502;SDS011;26970;49.900;10.774;2024-02-23T07:48:20;2.58;;;1.30;;
39502;SDS011;26970;49.900;10.774;2024-02-23T07:50:46;2.08;;;1.25;;
39502;SDS011;26970;49.900;10.774;2024-02-23T07:53:12;2.88;;;2.15;;
39502;SDS011;26970;49.900;10.774;2024-02-23T07:55:37;2.53;;;1.23;;
39502;SDS011;26970;49.900;10.774;2024-02-23T07:58:03;1.45;;;1.35;;
39502;SDS011;26970;49.900;10.774;2024-02-23T08:00:28;3.45;;;1.38;;
39502;SDS011;26970;49.900;10.774;2024-02-23T08:02:54;3.90;;;1.60;;
39502;SDS011;26970;49.900;10.774;2024-02-23T08:05:24;1.70;;;1.10;;
39502;SDS011;26970;49.900;10.774;2024-02-23T08:07:50;2.45;;;1.20;;
39502;SDS011;26970;49.900;10.774;2024-02-23T08:10:15;1.42;;;1.33;;
39502;SDS011;26970;49.900;10.774;2024-02-23T08:12:41;3.72;;;2.28;;
39502;SDS011;26970;49.900;10.774;2024-02-23T08:15:06;2.10;;;1.30;;
39502;SDS011;26970;49.900;10.774;2024-02-23T08:17:32;2.13;;;1.13;;
39502;SDS011;26970;49.900;10.774;2024-02-23T08:19:58;3.53;;;1.30;;
39502;SDS011;26970;49.900;10.774;2024-02-23T08:22:23;3.13;;;1.40;;
39502;SDS011;26970;49.900;10.774;2024-02-23T08:24:49;2.65;;;1.77;;
39502;SDS011;26970;49.900;10.774;2024-02-23T08:27:14;3.53;;;1.50;;
39502;SDS011;26970;49.900;10.774;2024-02-23T08:29:40;2.63;;;1.55;;
39502;SDS011;26970;49.900;10.774;2024-02-23T08:32:06;4.15;;;1.40;;
39502;SDS011;26970;49.900;10.774;2024-02-23T08:34:32;2.75;;;1.40;;
39502;SDS011;26970;49.900;10.774;2024-02-23T08:36:59;1.92;;;1.27;;
39502;SDS011;26970;49.900;10.774;2024-02-23T08:39:25;4.40;;;1.75;;
39502;SDS011;26970;49.900;10.774;2024-02-23T08:41:50;8.13;;;1.75;;
39502;SDS011;26970;49.900;10.774;2024-02-23T08:44:17;4.47;;;1.05;;
39502;SDS011;26970;49.900;10.774;2024-02-23T08:46:42;3.60;;;1.08;;
39502;SDS011;26970;49.900;10.774;2024-02-23T08:49:08;1.67;;;1.15;;
39502;SDS011;26970;49.900;10.774;2024-02-23T08:51:33;1.40;;;1.25;;
39502;SDS011;26970;49.900;10.774;2024-02-23T08:53:59;3.65;;;1.10;;
39502;SDS011;26970;49.900;10.774;2024-02-23T08:56:29;1.15;;;1.00;;
39502;SDS011;26970;49.900;10.774;2024-02-23T08:58:55;2.38;;;1.27;;
39502;SDS011;26970;49.900;10.774;2024-02-23T09:01:20;4.22;;;1.15;;
39502;SDS011;26970;49.900;10.774;2024-02-23T09:03:46;2.38;;;1.40;;
39502;SDS011;26970;49.900;10.774;2024-02-23T09:06:11;4.35;;;1.20;;
39502;SDS011;26970;49.900;10.774;2024-02-23T09:08:37;1.50;;;0.95;;
39502;SDS011;26970;49.900;10.774;2024-02-23T09:11:03;3.03;;;1.40;;
39502;SDS011;26970;49.900;10.774;2024-02-23T09:13:28;6.85;;;2.13;;
39502;SDS011;26970;49.900;10.774;2024-02-23T09:15:55;2.17;;;1.10;;
39502;SDS011;26970;49.900;10.774;2024-02-23T09:18:20;2.65;;;1.08;;
39502;SDS011;26970;49.900;10.774;2024-02-23T09:20:46;1.25;;;0.75;;
39502;SDS011;26970;49.900;10.774;2024-02-23T09:23:11;3.30;;;1.13;;
39502;SDS011;26970;49.900;10.774;2024-02-23T09:25:38;2.45;;;1.25;;
39502;SDS011;26970;49.900;10.774;2024-02-23T09:28:04;1.23;;;1.10;;
39502;SDS011;26970;49.900;10.774;2024-02-23T09:30:30;1.58;;;1.10;;
39502;SDS011;26970;49.900;10.774;2024-02-23T09:32:55;2.60;;;1.00;;
39502;SDS011;26970;49.900;10.774;2024-02-23T09:35:21;2.67;;;1.00;;
39502;SDS011;26970;49.900;10.774;2024-02-23T09:37:46;1.38;;;1.20;;
39502;SDS011;26970;49.900;10.774;2024-02-23T09:40:12;4.00;;;1.08;;
39502;SDS011;26970;49.900;10.774;2024-02-23T09:42:40;1.15;;;1.00;;
39502;SDS011;26970;49.900;10.774;2024-02-23T09:45:06;3.00;;;1.20;;
39502;SDS011;26970;49.900;10.774;2024-02-23T09:47:36;2.92;;;0.98;;
39502;SDS011;26970;49.900;10.774;2024-02-23T09:50:03;2.97;;;1.30;;
39502;SDS011;26970;49.900;10.774;2024-02-23T09:52:29;1.85;;;0.90;;
39502;SDS011;26970;49.900;10.774;2024-02-23T09:54:57;1.58;;;0.95;;
39502;SDS011;26970;49.900;10.774;2024-02-23T09:57:22;2.13;;;1.02;;
39502;SDS011;26970;49.900;10.774;2024-02-23T09:59:48;2.35;;;1.20;;
39502;SDS011;26970;49.900;10.774;2024-02-23T10:02:15;3.88;;;1.30;;
39502;SDS011;26970;49.900;10.774;2024-02-23T10:04:42;2.65;;;1.17;;
39502;SDS011;26970;49.900;10.774;2024-02-23T10:07:14;3.63;;;1.20;;
39502;SDS011;26970;49.900;10.774;2024-02-23T10:09:41;2.90;;;1.00;;
39502;SDS011;26970;49.900;10.774;2024-02-23T10:12:06;4.40;;;0.95;;
39502;SDS011;26970;49.900;10.774;2024-02-23T10:14:32;4.22;;;1.38;;
39502;SDS011;26970;49.900;10.774;2024-02-23T10:16:58;6.68;;;1.17;;
39502;SDS011;26970;49.900;10.774;2024-02-23T10:19:24;4.18;;;1.02;;
39502;SDS011;26970;49.900;10.774;2024-02-23T10:21:54;1.67;;;0.93;;
39502;SDS011;26970;49.900;10.774;2024-02-23T10:24:19;5.00;;;1.00;;
39502;SDS011;26970;49.900;10.774;2024-02-23T10:26:45;1.38;;;0.98;;
39502;SDS011;26970;49.900;10.774;2024-02-23T10:29:11;1.58;;;1.30;;
39502;SDS011;26970;49.900;10.774;2024-02-23T10:31:37;3.45;;;1.30;;
39502;SDS011;26970;49.900;10.774;2024-02-23T10:34:07;1.38;;;1.00;;
39502;SDS011;26970;49.900;10.774;2024-02-23T10:36:42;2.70;;;1.30;;
39502;SDS011;26970;49.900;10.774;2024-02-23T10:39:08;2.05;;;0.90;;
39502;SDS011;26970;49.900;10.774;2024-02-23T10:41:37;3.92;;;1.35;;
39502;SDS011;26970;49.900;10.774;2024-02-23T10:44:08;1.30;;;0.75;;
39502;SDS011;26970;49.900;10.774;2024-02-23T10:46:36;1.92;;;1.20;;
39502;SDS011;26970;49.900;10.774;2024-02-23T10:49:02;6.03;;;1.08;;
39502;SDS011;26970;49.900;10.774;2024-02-23T10:51:29;4.22;;;1.15;;
39502;SDS011;26970;49.900;10.774;2024-02-23T10:53:55;1.55;;;0.98;;
39502;SDS011;26970;49.900;10.774;2024-02-23T10:56:22;2.25;;;0.80;;
39502;SDS011;26970;49.900;10.774;2024-02-23T10:58:49;5.13;;;1.17;;
39502;SDS011;26970;49.900;10.774;2024-02-23T11:01:15;3.25;;;1.00;;
39502;SDS011;26970;49.900;10.774;2024-02-23T11:03:43;2.72;;;1.10;;
39502;SDS011;26970;49.900;10.774;2024-02-23T11:06:14;2.67;;;1.33;;
39502;SDS011;26970;49.900;10.774;2024-02-23T11:08:45;3.97;;;1.25;;
39502;SDS011;26970;49.900;10.774;2024-02-23T11:11:12;2.75;;;0.98;;
39502;SDS011;26970;49.900;10.774;2024-02-23T11:13:39;4.13;;;1.30;;
39502;SDS011;26970;49.900;10.774;2024-02-23T11:16:05;6.07;;;1.27;;
39502;SDS011;26970;49.900;10.774;2024-02-23T11:18:34;3.95;;;1.30;;
39502;SDS011;26970;49.900;10.774;2024-02-23T11:21:01;3.90;;;1.17;;
39502;SDS011;26970;49.900;10.774;2024-02-23T11:23:40;1.27;;;0.90;;
39502;SDS011;26970;49.900;10.774;2024-02-23T11:26:10;4.43;;;1.10;;
39502;SDS011;26970;49.900;10.774;2024-02-23T11:28:57;4.85;;;1.48;;
39502;SDS011;26970;49.900;10.774;2024-02-23T11:31:23;1.48;;;1.00;;
39502;SDS011;26970;49.900;10.774;2024-02-23T11:33:53;1.13;;;0.75;;
39502;SDS011;26970;49.900;10.774;2024-02-23T11:36:30;1.70;;;1.00;;
39502;SDS011;26970;49.900;10.774;2024-02-23T11:38:58;1.35;;;0.95;;
39502;SDS011;26970;49.900;10.774;2024-02-23T11:41:25;4.13;;;1.10;;
39502;SDS011;26970;49.900;10.774;2024-02-23T11:43:52;4.03;;;1.13;;
39502;SDS011;26970;49.900;10.774;2024-02-23T11:46:20;4.15;;;1.17;;
39502;SDS011;26970;49.900;10.774;2024-02-23T11:48:46;1.77;;;1.00;;
39502;SDS011;26970;49.900;10.774;2024-02-23T11:51:15;1.60;;;1.30;;
39502;SDS011;26970;49.900;10.774;2024-02-23T11:53:41;5.18;;;1.80;;
39502;SDS011;26970;49.900;10.774;2024-02-23T11:56:07;15.43;;;6.10;;
39502;SDS011;26970;49.900;10.774;2024-02-23T11:58:33;3.20;;;1.95;;
39502;SDS011;26970;49.900;10.774;2024-02-23T12:01:02;3.00;;;1.17;;
39502;SDS011;26970;49.900;10.774;2024-02-23T12:03:28;5.68;;;1.67;;
39502;SDS011;26970;49.900;10.774;2024-02-23T12:05:58;2.85;;;1.00;;
39502;SDS011;26970;49.900;10.774;2024-02-23T12:11:02;2.45;;;1.10;;
39502;SDS011;26970;49.900;10.774;2024-02-23T12:13:29;4.97;;;1.10;;
39502;SDS011;26970;49.900;10.774;2024-02-23T12:15:55;2.42;;;0.90;;
39502;SDS011;26970;49.900;10.774;2024-02-23T12:18:24;1.02;;;0.95;;
39502;SDS011;26970;49.900;10.774;2024-02-23T12:20:51;3.90;;;2.00;;
39502;SDS011;26970;49.900;10.774;2024-02-23T12:23:17;4.85;;;1.30;;
39502;SDS011;26970;49.900;10.774;2024-02-23T12:25:58;2.25;;;0.90;;
39502;SDS011;26970;49.900;10.774;2024-02-23T12:28:25;2.97;;;0.95;;
39502;SDS011;26970;49.900;10.774;2024-02-23T12:30:58;1.65;;;0.90;;
39502;SDS011;26970;49.900;10.774;2024-02-23T12:33:27;3.53;;;1.35;;
39502;SDS011;26970;49.900;10.774;2024-02-23T12:35:54;2.67;;;1.23;;
39502;SDS011;26970;49.900;10.774;2024-02-23T12:38:21;4.05;;;1.10;;
39502;SDS011;26970;49.900;10.774;2024-02-23T12:40:47;2.03;;;0.85;;
39502;SDS011;26970;49.900;10.774;2024-02-23T12:43:12;3.75;;;1.48;;
39502;SDS011;26970;49.900;10.774;2024-02-23T12:45:38;5.30;;;1.30;;
39502;SDS011;26970;49.900;10.774;2024-02-23T12:48:03;2.00;;;1.10;;
39502;SDS011;26970;49.900;10.774;2024-02-23T12:50:29;1.27;;;0.82;;
39502;SDS011;26970;49.900;10.774;2024-02-23T12:52:56;10.15;;;3.20;;
39502;SDS011;26970;49.900;10.774;2024-02-23T12:55:21;6.80;;;2.95;;
39502;SDS011;26970;49.900;10.774;2024-02-23T12:57:48;2.17;;;1.10;;
39502;SDS011;26970;49.900;10.774;2024-02-23T13:00:13;3.20;;;1.05;;
39502;SDS011;26970;49.900;10.774;2024-02-23T13:02:39;6.25;;;1.20;;
39502;SDS011;26970;49.900;10.774;2024-02-23T13:05:05;2.60;;;1.05;;
39502;SDS011;26970;49.900;10.774;2024-02-23T13:07:31;1.83;;;0.93;;
39502;SDS011;26970;49.900;10.774;2024-02-23T13:09:57;3.80;;;0.93;;
39502;SDS011;26970;49.900;10.774;2024-02-23T13:12:23;3.05;;;0.90;;
39502;SDS011;26970;49.900;10.774;2024-02-23T13:14:49;1.42;;;0.90;;
39502;SDS011;26970;49.900;10.774;2024-02-23T13:17:16;1.60;;;1.15;;
39502;SDS011;26970;49.900;10.774;2024-02-23T13:19:42;4.88;;;2.33;;
39502;SDS011;26970;49.900;10.774;2024-02-23T13:22:08;4.63;;;2.35;;
39502;SDS011;26970;49.900;10.774;2024-02-23T13:24:34;6.95;;;3.17;;
39502;SDS011;26970;49.900;10.774;2024-02-23T13:26:59;9.88;;;4.35;;
39502;SDS011;26970;49.900;10.774;2024-02-23T13:29:25;13.15;;;5.65;;
39502;SDS011;26970;49.900;10.774;2024-02-23T13:31:50;45.63;;;17.13;;
39502;SDS011;26970;49.900;10.774;2024-02-23T13:34:16;59.03;;;20.77;;
39502;SDS011;26970;49.900;10.774;2024-02-23T13:36:43;10.45;;;6.35;;
39502;SDS011;26970;49.900;10.774;2024-02-23T13:39:09;6.40;;;3.47;;
39502;SDS011;26970;49.900;10.774;2024-02-23T13:41:34;12.55;;;8.85;;
39502;SDS011;26970;49.900;10.774;2024-02-23T13:44:00;15.20;;;9.23;;
39502;SDS011;26970;49.900;10.774;2024-02-23T13:46:25;9.98;;;7.43;;
39502;SDS011;26970;49.900;10.774;2024-02-23T13:49:01;9.45;;;6.93;;
39502;SDS011;26970;49.900;10.774;2024-02-23T13:51:29;19.42;;;17.45;;
39502;SDS011;26970;49.900;10.774;2024-02-23T13:53:55;8.02;;;5.35;;
39502;SDS011;26970;49.900;10.774;2024-02-23T13:56:20;8.43;;;5.15;;
39502;SDS011;26970;49.900;10.774;2024-02-23T13:58:46;12.15;;;9.68;;
39502;SDS011;26970;49.900;10.774;2024-02-23T14:01:13;5.75;;;3.15;;
39502;SDS011;26970;49.900;10.774;2024-02-23T14:03:38;3.08;;;2.42;;
39502;SDS011;26970;49.900;10.774;2024-02-23T14:06:04;3.80;;;2.20;;
39502;SDS011;26970;49.900;10.774;2024-02-23T14:08:30;3.17;;;2.08;;
39502;SDS011;26970;49.900;10.774;2024-02-23T14:10:56;2.75;;;1.20;;
39502;SDS011;26970;49.900;10.774;2024-02-23T14:13:21;3.25;;;1.20;;
39502;SDS011;26970;49.900;10.774;2024-02-23T14:15:48;1.65;;;1.20;;
39502;SDS011;26970;49.900;10.774;2024-02-23T14:18:13;5.75;;;1.10;;
39502;SDS011;26970;49.900;10.774;2024-02-23T14:20:39;3.05;;;1.40;;
39502;SDS011;26970;49.900;10.774;2024-02-23T14:23:05;2.03;;;1.10;;
39502;SDS011;26970;49.900;10.774;2024-02-23T14:25:30;1.83;;;1.25;;
39502;SDS011;26970;49.900;10.774;2024-02-23T14:27:56;2.75;;;1.17;;
39502;SDS011;26970;49.900;10.774;2024-02-23T14:30:22;1.10;;;1.00;;